Time;durP1;ratioP1;P1;durP2;ratioP2;P2;SDS_P1;SDS_P2;PMS_P1;PMS_P2;Temp;Humidity;BMP_temperature;BMP_pressure;BME280_temperature;BME280_humidity;BME280_pressure;Samples;Min_cycle;Max_cycle;Signal;HPM_P1;HPM_P2
2023/02/24 00:00:37;;;;;;;23.35;18.60;;;;;;;6.70;100.00;98050.97;15273282;19;20021;-49
2023/02/24 00:06:10;;;;;;;22.67;19.02;;;;;;;6.67;100.00;98039.69;15267459;19;20023;-48
2023/02/24 00:11:35;;;;;;;25.83;19.97;;;;;;;6.67;100.00;98040.53;15271270;19;20010;-51
2023/02/24 00:17:00;;;;;;;27.38;21.25;;;;;;;6.61;100.00;98039.28;15271323;19;20015;-53
2023/02/24 00:22:28;;;;;;;21.60;17.80;;;;;;;6.55;100.00;98036.34;15272394;19;20025;-50
2023/02/24 00:27:54;;;;;;;20.25;14.77;;;;;;;6.45;100.00;98028.38;15268990;19;20028;-52
2023/02/24 00:33:22;;;;;;;21.63;16.10;;;;;;;6.41;100.00;98027.78;15270518;19;20023;-52
2023/02/24 00:38:57;;;;;;;21.90;16.30;;;;;;;6.32;100.00;98020.63;15263248;19;20014;-49
2023/02/24 00:44:23;;;;;;;25.08;16.90;;;;;;;6.19;100.00;98017.41;15265649;19;20034;-50
2023/02/24 00:49:49;;;;;;;23.08;16.88;;;;;;;6.14;100.00;98021.38;15268169;19;20023;-50
2023/02/24 00:55:18;;;;;;;25.98;16.73;;;;;;;6.11;100.00;98018.16;15268106;19;20033;-50
2023/02/24 01:00:43;;;;;;;23.35;14.88;;;;;;;6.04;100.00;98017.88;15279126;19;20014;-50
2023/02/24 01:06:08;;;;;;;23.60;15.73;;;;;;;6.00;100.00;98005.75;15278931;19;20039;-51
2023/02/24 01:17:21;;;;;;;19.80;14.00;;;;;;;5.94;100.00;97996.44;15255487;19;20014;-51
2023/02/24 01:22:46;;;;;;;14.73;11.35;;;;;;;5.92;100.00;97989.56;15280216;19;20050;-51
2023/02/24 01:28:13;;;;;;;14.77;10.82;;;;;;;5.88;100.00;97980.13;15279512;19;20054;-51
2023/02/24 01:33:39;;;;;;;16.10;11.50;;;;;;;5.80;100.00;97976.34;15276963;19;20021;-49
2023/02/24 01:39:12;;;;;;;21.02;13.70;;;;;;;5.72;100.00;97978.88;15258167;19;20046;-50
2023/02/24 01:45:15;;;;;;;22.83;15.70;;;;;;;5.62;100.00;97972.69;15276785;19;20018;-56
2023/02/24 01:50:43;;;;;;;29.58;17.10;;;;;;;5.55;100.00;97978.59;15276806;19;20096;-53
2023/02/24 01:56:12;;;;;;;27.05;16.38;;;;;;;5.47;100.00;97962.41;15282504;19;20014;-54
2023/02/24 02:01:41;;;;;;;33.35;18.33;;;;;;;5.45;100.00;97972.44;15273775;19;20022;-55
2023/02/24 02:07:09;;;;;;;38.20;18.70;;;;;;;5.39;100.00;97975.63;15277273;19;20014;-49
2023/02/24 02:12:36;;;;;;;29.80;16.10;;;;;;;5.31;100.00;97975.50;15274187;19;20024;-56
2023/02/24 02:18:11;;;;;;;26.02;15.57;;;;;;;5.27;100.00;97963.41;15276583;19;20021;-54
2023/02/24 02:24:03;;;;;;;23.73;14.50;;;;;;;5.25;100.00;97959.03;15278789;19;20010;-52
2023/02/24 02:30:05;;;;;;;23.92;15.30;;;;;;;5.24;100.00;97954.66;15269854;19;20078;-55
2023/02/24 02:35:39;;;;;;;21.83;13.57;;;;;;;5.25;100.00;97953.69;15279453;19;20270;-52
2023/02/24 02:41:17;;;;;;;18.25;12.30;;;;;;;5.27;100.00;97950.03;14763048;19;10001865;-55
2023/02/24 02:46:46;;;;;;;15.32;10.93;;;;;;;5.26;100.00;97941.19;15267670;19;20403;-53
2023/02/24 02:52:20;;;;;;;13.73;10.05;;;;;;;5.51;100.00;97931.78;15274099;19;20014;-59
2023/02/24 02:57:50;;;;;;;10.98;8.35;;;;;;;5.56;100.00;97899.28;15275053;19;20026;-58
2023/02/24 03:03:20;;;;;;;9.73;7.97;;;;;;;5.67;100.00;97874.25;15276911;19;20018;-59
2023/02/24 03:08:54;;;;;;;8.10;6.78;;;;;;;5.76;100.00;97838.63;15274693;19;20467;-56
2023/02/24 03:14:23;;;;;;;10.43;7.00;;;;;;;5.78;100.00;97804.56;15270639;19;20018;-58
2023/02/24 03:19:53;;;;;;;8.68;6.60;;;;;;;5.83;100.00;97777.41;15265586;19;20019;-60
2023/02/24 03:25:22;;;;;;;8.50;5.80;;;;;;;5.82;100.00;97752.50;15271848;19;20142;-59
2023/02/24 03:30:57;;;;;;;8.90;6.57;;;;;;;5.82;100.00;97749.81;15266256;19;20022;-58
2023/02/24 03:36:23;;;;;;;8.02;6.80;;;;;;;5.87;100.00;97752.06;15273215;19;20081;-59
2023/02/24 03:42:03;;;;;;;9.27;6.88;;;;;;;5.79;100.00;97736.78;15269979;19;20533;-50
2023/02/24 03:47:29;;;;;;;10.85;7.18;;;;;;;5.65;100.00;97742.59;15270873;19;20022;-49
2023/02/24 03:53:03;;;;;;;11.32;7.90;;;;;;;5.56;100.00;97741.63;15267692;19;20022;-52
2023/02/24 03:58:46;;;;;;;11.05;7.97;;;;;;;5.49;100.00;97744.03;15268938;19;20021;-50
2023/02/24 04:04:18;;;;;;;12.52;9.13;;;;;;;5.46;100.00;97757.72;15270187;19;20024;-51
2023/02/24 04:10:02;;;;;;;13.35;9.30;;;;;;;5.47;100.00;97756.69;15268827;19;20475;-53
2023/02/24 04:15:38;;;;;;;15.82;10.40;;;;;;;5.44;100.00;97765.03;15266138;19;20053;-55
2023/02/24 04:21:06;;;;;;;17.38;11.52;;;;;;;5.41;100.00;97767.97;15256774;19;20014;-50
2023/02/24 04:26:34;;;;;;;20.60;12.82;;;;;;;5.40;100.00;97766.28;15263513;19;20025;-55
2023/02/24 04:32:06;;;;;;;21.38;13.90;;;;;;;5.31;100.00;97767.16;15265359;19;20041;-52
2023/02/24 04:37:38;;;;;;;21.65;13.88;;;;;;;5.28;100.00;97762.97;15269353;19;20033;-50
2023/02/24 04:43:04;;;;;;;26.42;14.05;;;;;;;5.28;100.00;97768.31;15269547;19;20853;-49
2023/02/24 04:48:31;;;;;;;23.27;14.48;;;;;;;5.29;100.00;97759.31;15266127;19;20026;-54
2023/02/24 04:53:57;;;;;;;25.20;14.52;;;;;;;5.28;100.00;97757.63;15262043;19;20011;-52
2023/02/24 04:59:23;;;;;;;24.42;14.70;;;;;;;5.30;100.00;97744.94;15266505;19;20020;-53
2023/02/24 05:04:51;;;;;;;24.80;15.48;;;;;;;5.26;100.00;97735.56;15268817;19;20023;-52
2023/02/24 05:10:19;;;;;;;24.30;14.77;;;;;;;5.21;100.00;97732.47;15266440;19;20061;-56
2023/02/24 05:15:46;;;;;;;27.25;15.73;;;;;;;5.21;100.00;97730.66;15269367;19;20022;-55
2023/02/24 05:26:57;;;;;;;26.58;15.77;;;;;;;5.18;100.00;97730.94;15262941;19;20018;-51
2023/02/24 05:32:23;;;;;;;26.52;15.65;;;;;;;5.14;100.00;97726.84;15267682;19;20029;-51
2023/02/24 05:37:43;;;;;;;24.13;14.57;;;;;;;5.09;100.00;97710.44;15263063;19;20727;-49
2023/02/24 05:43:17;;;;;;;27.87;15.97;;;;;;;5.11;100.00;97713.81;15268223;19;20690;-49
2023/02/24 05:48:43;;;;;;;27.33;16.20;;;;;;;5.06;100.00;97718.72;15276610;19;20279;-49
2023/02/24 05:54:10;;;;;;;28.75;16.15;;;;;;;5.04;100.00;97728.69;15282109;19;20021;-51
2023/02/24 05:59:35;;;;;;;18.45;11.20;;;;;;;4.83;100.00;97729.72;15274919;19;20427;-51
2023/02/24 06:05:03;;;;;;;17.83;10.20;;;;;;;4.75;100.00;97714.41;15281418;19;20010;-51
2023/02/24 06:10:32;;;;;;;11.25;6.90;;;;;;;4.42;100.00;97697.00;15277634;19;20014;-49
2023/02/24 06:15:56;;;;;;;10.32;7.22;;;;;;;4.28;100.00;97675.13;15277875;19;20022;-50
2023/02/24 06:21:21;;;;;;;11.57;7.70;;;;;;;4.25;100.00;97663.88;15272901;19;20502;-52
2023/02/24 06:26:49;;;;;;;12.57;8.02;;;;;;;4.25;100.00;97661.22;15279839;19;20014;-51
2023/02/24 06:32:14;;;;;;;13.93;8.45;;;;;;;4.19;100.00;97669.78;15272727;19;20943;-55
2023/02/24 06:37:38;;;;;;;11.18;6.97;;;;;;;4.08;100.00;97668.09;15275432;19;20014;-52
2023/02/24 06:43:05;;;;;;;10.30;6.75;;;;;;;4.00;100.00;97656.31;15276876;19;20019;-49
2023/02/24 06:48:32;;;;;;;11.43;7.05;;;;;;;3.98;100.00;97655.59;15274629;19;20021;-49
2023/02/24 06:53:58;;;;;;;9.07;6.22;;;;;;;3.88;100.00;97645.91;15277618;19;20022;-49
2023/02/24 06:59:27;;;;;;;9.75;5.80;;;;;;;3.85;100.00;97631.91;15272834;19;20356;-50
2023/02/24 07:04:54;;;;;;;8.82;5.47;;;;;;;3.81;100.00;97632.31;15271185;19;20053;-51
2023/02/24 07:10:20;;;;;;;7.63;4.60;;;;;;;3.71;100.00;97632.28;15267989;19;20026;-51
2023/02/24 07:15:48;;;;;;;8.13;4.25;;;;;;;3.64;100.00;97618.66;15275664;19;20022;-49
2023/02/24 07:21:15;;;;;;;7.28;4.70;;;;;;;3.55;100.00;97619.50;15276587;19;20629;-49
2023/02/24 07:26:40;;;;;;;8.70;4.75;;;;;;;3.51;100.00;97605.63;15280493;19;20379;-50
2023/02/24 07:32:09;;;;;;;6.78;4.10;;;;;;;3.50;100.00;97603.94;15277064;19;20010;-52
2023/02/24 07:37:40;;;;;;;6.43;3.80;;;;;;;3.46;100.00;97605.16;15264522;19;20032;-77
2023/02/24 07:43:06;;;;;;;4.90;2.90;;;;;;;3.35;100.00;97591.97;15272299;19;21025;-76
2023/02/24 07:48:33;;;;;;;4.60;2.67;;;;;;;3.35;100.00;97591.97;15275691;19;20017;-77
2023/02/24 07:54:02;;;;;;;5.97;3.40;;;;;;;3.20;100.00;97599.50;15275000;19;20018;-77
2023/02/24 07:59:26;;;;;;;5.30;3.40;;;;;;;2.82;100.00;97582.41;15274404;19;20025;-76
2023/02/24 08:04:53;;;;;;;10.68;4.50;;;;;;;2.82;100.00;97595.69;15272557;19;20010;-77
2023/02/24 08:10:34;;;;;;;9.65;5.03;;;;;;;2.87;100.00;97599.66;15267711;19;20469;-77
2023/02/24 08:15:59;;;;;;;14.88;7.25;;;;;;;2.97;100.00;97626.31;15269679;19;20014;-76
2023/02/24 08:21:26;;;;;;;12.77;7.10;;;;;;;2.99;100.00;97621.69;15274447;19;20011;-77
2023/02/24 08:27:03;;;;;;;11.43;6.47;;;;;;;3.01;100.00;97609.06;15270052;19;20052;-76
2023/02/24 08:32:32;;;;;;;12.18;7.20;;;;;;;3.11;100.00;97606.47;15272825;19;20026;-76
2023/02/24 08:38:03;;;;;;;14.70;7.53;;;;;;;3.16;100.00;97595.41;15269795;19;20029;-76
2023/02/24 08:43:34;;;;;;;16.37;8.10;;;;;;;3.31;100.00;97598.53;15265996;19;20022;-76
2023/02/24 08:49:00;;;;;;;12.90;6.63;;;;;;;3.30;100.00;97580.88;15270038;19;20018;-76
2023/02/24 08:54:30;;;;;;;13.85;6.72;;;;;;;3.37;100.00;97558.06;15267442;19;20018;-76
2023/02/24 08:59:59;;;;;;;14.40;7.55;;;;;;;3.44;100.00;97547.72;15270236;19;20688;-76
2023/02/24 09:05:24;;;;;;;13.05;6.85;;;;;;;3.45;100.00;97515.63;15265175;19;20029;-77
2023/02/24 09:10:51;;;;;;;12.70;7.13;;;;;;;3.54;100.00;97509.44;15260983;19;20381;-76
2023/02/24 09:16:17;;;;;;;15.75;7.60;;;;;;;3.62;100.00;97492.78;15269453;19;20011;-76
2023/02/24 09:27:32;;;;;;;15.43;6.47;;;;;;;3.73;100.00;97473.16;15283925;19;20054;-76
2023/02/24 09:32:59;;;;;;;12.27;6.80;;;;;;;3.77;100.00;97455.06;15283753;19;20022;-76
2023/02/24 09:39:08;;;;;;;10.10;6.65;;;;;;;3.89;100.00;97451.25;15280221;19;20018;-76
2023/02/24 09:44:19;;;;;;;10.13;6.10;;;;;;;3.96;100.00;97425.72;15277120;19;20033;-76
2023/02/24 09:50:03;;;;;;;9.77;5.65;;;;;;;4.06;100.00;97412.38;15281551;19;20022;-76
2023/02/24 09:55:34;;;;;;;13.68;6.53;;;;;;;4.18;100.00;97375.69;15280275;19;20018;-77
2023/02/24 10:06:49;;;;;;;8.45;6.05;;;;;;;4.35;100.00;97351.91;15322534;19;20019;-77
2023/02/24 10:12:22;;;;;;;12.13;6.68;;;;;;;4.44;100.00;97351.00;15279929;19;20029;-77
2023/02/24 10:17:54;;;;;;;7.60;5.10;;;;;;;4.51;100.00;97341.44;15278340;19;20357;-76
2023/02/24 10:23:31;;;;;;;6.30;4.53;;;;;;;4.80;100.00;97327.06;15279821;19;20058;-77
2023/02/24 10:29:07;;;;;;;6.70;4.43;;;;;;;5.00;100.00;97316.25;15258090;19;20743;-77
2023/02/24 10:34:38;;;;;;;5.65;3.75;;;;;;;5.14;100.00;97305.00;15278657;19;20022;-77
2023/02/24 10:40:23;;;;;;;5.28;3.03;;;;;;;5.25;100.00;97263.88;15277561;19;20018;-77
2023/02/24 10:45:56;;;;;;;3.72;2.60;;;;;;;5.39;100.00;97236.59;15276277;19;20068;-77
2023/02/24 10:51:30;;;;;;;3.85;2.55;;;;;;;5.48;100.00;97224.13;15273293;19;20028;-77
2023/02/24 10:57:06;;;;;;;2.67;2.28;;;;;;;5.66;100.00;97200.00;15272454;19;20018;-51
2023/02/24 11:02:55;;;;;;;4.82;2.35;;;;;;;5.66;100.00;97185.81;15278405;19;20490;-53
2023/02/24 11:08:35;;;;;;;2.70;2.08;;;;;;;5.85;100.00;97174.84;15275788;19;20019;-53
2023/02/24 11:19:55;;;;;;;3.25;2.30;;;;;;;6.01;100.00;97147.34;15267169;19;20026;-56
2023/02/24 11:25:26;;;;;;;3.95;2.25;;;;;;;6.11;100.00;97138.38;15273570;19;20029;-52
2023/02/24 11:30:57;;;;;;;2.88;2.45;;;;;;;6.40;100.00;97113.81;15273402;19;20627;-54
2023/02/24 11:36:32;;;;;;;2.97;2.30;;;;;;;6.33;100.00;97115.47;15275280;19;20029;-53
2023/02/24 11:42:04;;;;;;;2.90;2.60;;;;;;;6.37;100.00;97108.81;15274560;19;20471;-54
2023/02/24 11:47:36;;;;;;;2.47;2.15;;;;;;;6.14;100.00;97084.53;15274624;19;20018;-51
2023/02/24 11:53:04;;;;;;;2.42;2.10;;;;;;;6.21;100.00;97085.56;15268955;19;20198;-51
2023/02/24 11:58:47;;;;;;;2.67;2.38;;;;;;;6.09;100.00;97074.34;15271093;19;20737;-52
2023/02/24 12:04:20;;;;;;;2.70;2.50;;;;;;;6.02;100.00;97065.34;15276378;19;20038;-53
2023/02/24 12:09:53;;;;;;;2.65;2.45;;;;;;;6.05;100.00;97050.78;15271061;19;20477;-54
2023/02/24 12:15:43;;;;;;;4.20;2.70;;;;;;;5.85;100.00;97053.75;15273262;19;20014;-53
2023/02/24 12:21:13;;;;;;;3.22;2.47;;;;;;;5.70;100.00;97034.88;15269988;19;20694;-52
2023/02/24 12:26:46;;;;;;;3.20;2.70;;;;;;;5.75;100.00;97027.19;15267313;19;20010;-56
2023/02/24 12:32:24;;;;;;;3.83;2.60;;;;;;;5.78;100.00;97015.31;15270777;19;20366;-52
2023/02/24 12:38:05;;;;;;;3.33;2.70;;;;;;;5.74;100.00;97022.81;15270264;19;20019;-51
2023/02/24 12:43:38;;;;;;;4.80;2.90;;;;;;;5.79;100.00;97008.97;15271675;19;20031;-51
2023/02/24 12:49:19;;;;;;;3.15;2.83;;;;;;;5.77;100.00;97001.13;15269027;19;20022;-51
2023/02/24 12:54:54;;;;;;;2.90;2.60;;;;;;;5.77;100.00;96985.09;15278054;19;20018;-52
2023/02/24 13:00:31;;;;;;;3.78;2.70;;;;;;;5.71;100.00;96981.25;15273854;19;20400;-50
2023/02/24 13:06:08;;;;;;;3.40;3.10;;;;;;;5.68;100.00;96978.09;15285079;19;20050;-54
2023/02/24 13:11:46;;;;;;;3.50;3.10;;;;;;;5.67;100.00;96960.38;15278981;19;20035;-53
2023/02/24 13:17:24;;;;;;;3.53;2.97;;;;;;;5.68;100.00;96946.03;15283636;19;20018;-50
2023/02/24 13:22:51;;;;;;;3.50;3.13;;;;;;;5.69;100.00;96945.84;15284050;19;20705;-50
2023/02/24 13:28:26;;;;;;;3.72;3.20;;;;;;;5.65;100.00;96939.16;15280409;19;20054;-51
2023/02/24 13:33:52;;;;;;;4.07;3.28;;;;;;;5.66;100.00;96930.13;15277171;19;20345;-55
2023/02/24 13:39:28;;;;;;;3.47;3.10;;;;;;;5.61;100.00;96927.16;15279408;19;20475;-54
2023/02/24 13:44:57;;;;;;;3.78;3.03;;;;;;;5.58;100.00;96922.13;15283017;19;20334;-54
2023/02/24 13:50:26;;;;;;;4.35;3.20;;;;;;;5.50;100.00;96922.13;15279386;19;20021;-50
2023/02/24 13:56:06;;;;;;;3.55;3.00;;;;;;;5.45;100.00;96909.28;15280039;19;20015;-53
2023/02/24 14:01:34;;;;;;;3.70;3.17;;;;;;;5.35;100.00;96905.94;15268671;19;20020;-52
2023/02/24 14:07:02;;;;;;;8.23;3.40;;;;;;;5.70;100.00;96906.63;15275221;19;20032;-51
2023/02/24 14:12:32;;;;;;;5.10;3.03;;;;;;;5.79;100.00;96894.91;15281507;19;20010;-50
2023/02/24 14:18:04;;;;;;;3.10;2.50;;;;;;;5.70;100.00;96893.25;15279127;19;21591;-49
2023/02/24 14:23:31;;;;;;;3.13;2.43;;;;;;;5.21;100.00;96910.94;15280530;19;20043;-51
2023/02/24 14:29:03;;;;;;;2.95;2.30;;;;;;;4.79;100.00;96890.47;15276605;19;20326;-51
2023/02/24 14:34:32;;;;;;;3.70;2.47;;;;;;;4.44;100.00;96890.53;15273265;19;20022;-50
2023/02/24 14:39:58;;;;;;;2.72;1.98;;;;;;;3.97;100.00;96915.78;15271670;19;20021;-49
2023/02/24 14:45:28;;;;;;;3.47;2.10;;;;;;;3.43;100.00;96920.38;15278689;19;20015;-50
2023/02/24 14:50:52;;;;;;;3.25;2.10;;;;;;;3.24;100.00;96933.69;15272855;19;20617;-52
2023/02/24 14:56:19;;;;;;;3.25;2.22;;;;;;;2.88;100.00;96931.00;15271768;19;20029;-52
2023/02/24 15:01:51;;;;;;;4.05;2.40;;;;;;;2.75;100.00;96941.16;15263821;19;20014;-48
2023/02/24 15:07:19;;;;;;;3.83;2.95;;;;;;;2.63;100.00;96929.88;15271231;19;20019;-52
2023/02/24 15:12:52;;;;;;;4.47;2.75;;;;;;;2.58;100.00;96929.47;15274199;19;20018;-50
2023/02/24 15:18:27;;;;;;;4.85;3.05;;;;;;;2.51;100.00;96933.72;15273056;19;20018;-49
2023/02/24 15:23:52;;;;;;;4.95;3.17;;;;;;;2.47;100.00;96935.81;15274882;19;20014;-51
2023/02/24 15:29:25;;;;;;;5.32;3.45;;;;;;;2.37;100.00;96935.88;15271159;19;20581;-51
2023/02/24 15:34:54;;;;;;;5.70;3.70;;;;;;;2.35;100.00;96929.88;15271558;19;20410;-50
2023/02/24 15:40:23;;;;;;;7.70;4.05;;;;;;;2.28;100.00;96931.44;15261279;19;20018;-51
2023/02/24 15:45:48;;;;;;;7.07;3.85;;;;;;;2.18;100.00;96928.81;15271983;19;20028;-50
2023/02/24 15:51:32;;;;;;;6.28;3.83;;;;;;;2.11;100.00;96935.72;15265737;19;20047;-50
2023/02/24 15:56:57;;;;;;;5.85;4.25;;;;;;;2.10;100.00;96942.81;15265379;19;20010;-53
2023/02/24 16:02:24;;;;;;;7.47;4.47;;;;;;;2.03;100.00;96947.03;15261824;19;20018;-50
2023/02/24 16:07:53;;;;;;;8.10;4.70;;;;;;;1.99;100.00;96943.84;15271543;19;20022;-51
2023/02/24 16:13:21;;;;;;;6.10;4.30;;;;;;;1.97;100.00;96950.25;15262956;19;20014;-49
2023/02/24 16:18:47;;;;;;;7.95;4.90;;;;;;;1.98;100.00;96957.25;15269256;19;20021;-49
2023/02/24 16:24:15;;;;;;;7.50;4.65;;;;;;;1.96;100.00;96944.13;15268938;19;20478;-49
2023/02/24 16:29:39;;;;;;;7.20;4.80;;;;;;;1.97;100.00;96940.50;15265705;19;20016;-51
2023/02/24 16:35:04;;;;;;;5.63;4.32;;;;;;;1.96;100.00;96940.63;15269715;19;20367;-51
2023/02/24 16:40:36;;;;;;;7.80;4.50;;;;;;;1.94;100.00;96939.94;15262796;19;20512;-55
2023/02/24 16:46:04;;;;;;;5.97;4.00;;;;;;;1.90;100.00;96934.06;15262984;19;20036;-53
2023/02/24 16:51:30;;;;;;;4.50;3.72;;;;;;;1.90;100.00;96925.28;15262245;19;20018;-49
2023/02/24 16:56:57;;;;;;;4.72;3.60;;;;;;;1.85;100.00;96942.47;15261975;19;20383;-53
2023/02/24 17:02:27;;;;;;;4.53;3.33;;;;;;;1.81;100.00;96932.28;15265817;19;20018;-54
2023/02/24 17:07:54;;;;;;;4.57;3.30;;;;;;;1.79;100.00;96928.91;15264489;19;20022;-50
2023/02/24 17:13:23;;;;;;;3.47;3.03;;;;;;;1.75;100.00;96923.06;15261863;19;20015;-52
2023/02/24 17:18:48;;;;;;;3.28;2.95;;;;;;;1.75;100.00;96920.41;15259359;19;20022;-51
2023/02/24 17:24:13;;;;;;;2.78;2.50;;;;;;;1.76;100.00;96923.91;15264941;19;20022;-50
2023/02/24 17:29:41;;;;;;;2.63;2.25;;;;;;;1.75;100.00;96919.59;15264591;19;20347;-50
2023/02/24 17:35:05;;;;;;;2.40;2.20;;;;;;;1.77;100.00;96920.25;15264489;19;20017;-53
2023/02/24 17:40:31;;;;;;;2.50;2.30;;;;;;;1.76;100.00;96908.81;15264943;19;20141;-50
2023/02/24 17:45:58;;;;;;;3.53;2.58;;;;;;;1.78;100.00;96917.47;15277815;19;20021;-50
2023/02/24 17:51:24;;;;;;;2.30;2.10;;;;;;;1.78;100.00;96896.22;15265210;19;20439;-50
2023/02/24 17:56:55;;;;;;;3.13;2.50;;;;;;;1.80;100.00;96885.47;15276156;19;20010;-51
2023/02/24 18:02:23;;;;;;;2.28;2.08;;;;;;;1.80;100.00;96877.50;15275429;19;20018;-54
2023/02/24 18:07:47;;;;;;;2.03;1.83;;;;;;;1.80;100.00;96881.00;15273922;19;20021;-49
2023/02/24 18:13:12;;;;;;;1.75;1.65;;;;;;;1.86;100.00;96866.31;15270175;19;20014;-48
2023/02/24 18:18:39;;;;;;;2.00;1.80;;;;;;;1.91;100.00;96836.66;15272878;19;20050;-51
2023/02/24 18:24:04;;;;;;;2.05;1.85;;;;;;;1.96;100.00;96821.09;15273858;19;20041;-48
2023/02/24 18:29:30;;;;;;;1.70;1.60;;;;;;;1.97;100.00;96814.81;15275329;19;20026;-49
2023/02/24 18:34:58;;;;;;;1.70;1.60;;;;;;;1.98;100.00;96813.84;15276693;19;20543;-52
2023/02/24 18:40:24;;;;;;;2.03;1.70;;;;;;;1.99;100.00;96810.19;15277741;19;20021;-49
2023/02/24 18:45:49;;;;;;;2.45;1.70;;;;;;;2.00;100.00;96798.59;15272003;19;20035;-52
2023/02/24 18:51:16;;;;;;;1.85;1.75;;;;;;;2.01;100.00;96800.25;15270928;19;20011;-55
2023/02/24 18:56:41;;;;;;;2.05;1.92;;;;;;;2.02;100.00;96801.94;15273873;19;20121;-51
2023/02/24 19:02:05;;;;;;;2.20;2.00;;;;;;;2.05;100.00;96788.38;15274223;19;20467;-51
2023/02/24 19:07:33;;;;;;;2.55;2.17;;;;;;;2.03;100.00;96793.00;15274625;19;20050;-52
2023/02/24 19:12:57;;;;;;;3.03;2.10;;;;;;;2.08;100.00;96766.81;15268075;19;20030;-51
2023/02/24 19:18:24;;;;;;;3.00;2.22;;;;;;;2.11;100.00;96757.72;15273890;19;20019;-51
2023/02/24 19:23:51;;;;;;;3.45;2.20;;;;;;;2.14;100.00;96755.59;15274518;19;20025;-52
2023/02/24 19:29:16;;;;;;;2.92;2.25;;;;;;;2.15;100.00;96759.94;15272952;19;20626;-53
2023/02/24 19:34:42;;;;;;;2.92;2.30;;;;;;;2.21;100.00;96731.94;15273610;19;20018;-51
2023/02/24 19:40:12;;;;;;;3.97;2.78;;;;;;;2.21;100.00;96736.38;15269219;19;20025;-52
2023/02/24 19:45:36;;;;;;;4.47;2.55;;;;;;;2.23;100.00;96739.75;15271836;19;20014;-49
2023/02/24 19:51:01;;;;;;;2.88;2.50;;;;;;;2.21;100.00;96726.63;15272252;19;20018;-53
2023/02/24 19:56:30;;;;;;;3.90;2.53;;;;;;;2.20;100.00;96718.78;15266918;19;20023;-54
2023/02/24 20:01:56;;;;;;;3.75;2.28;;;;;;;2.25;100.00;96709.38;15274186;19;20019;-53
2023/02/24 20:07:21;;;;;;;3.72;2.30;;;;;;;2.28;100.00;96702.94;15269963;19;20027;-49
2023/02/24 20:12:49;;;;;;;4.47;2.65;;;;;;;2.27;100.00;96704.75;15267881;19;20022;-50
2023/02/24 20:18:14;;;;;;;4.97;3.38;;;;;;;2.32;100.00;96706.94;15271988;19;20023;-51
2023/02/24 20:23:39;;;;;;;5.25;3.10;;;;;;;2.29;100.00;96701.94;15270165;19;20017;-50
2023/02/24 20:29:10;;;;;;;3.95;2.90;;;;;;;2.25;100.00;96725.31;15260809;19;20022;-51
2023/02/24 20:34:37;;;;;;;4.85;3.60;;;;;;;2.18;100.00;96718.09;15267112;19;20014;-51
2023/02/24 20:40:01;;;;;;;4.18;3.35;;;;;;;2.08;100.00;96713.69;15262634;19;20018;-50
2023/02/24 20:45:29;;;;;;;6.25;4.00;;;;;;;2.00;100.00;96698.50;15268778;19;20018;-53
2023/02/24 20:50:53;;;;;;;4.15;3.72;;;;;;;1.95;100.00;96689.31;15265787;19;20018;-49
2023/02/24 20:56:20;;;;;;;4.90;3.75;;;;;;;2.00;100.00;96687.88;15268856;19;20024;-51
2023/02/24 21:01:56;;;;;;;3.85;3.55;;;;;;;2.00;100.00;96700.31;15256779;19;20488;-48
2023/02/24 21:07:21;;;;;;;4.53;3.67;;;;;;;2.06;100.00;96690.91;15264574;19;20774;-49
2023/02/24 21:12:46;;;;;;;5.63;3.75;;;;;;;2.07;100.00;96685.44;15264065;19;20022;-50
2023/02/24 21:18:14;;;;;;;3.90;3.50;;;;;;;2.11;100.00;96684.16;15278276;19;20018;-51
2023/02/24 21:23:39;;;;;;;4.38;3.60;;;;;;;2.13;100.00;96662.75;15279556;19;20424;-50
2023/02/24 21:29:04;;;;;;;4.70;3.80;;;;;;;2.18;100.00;96664.94;15276000;19;20022;-50
2023/02/24 21:34:32;;;;;;;6.93;4.47;;;;;;;2.21;100.00;96667.31;15273575;19;20014;-51
2023/02/24 21:39:57;;;;;;;6.43;4.30;;;;;;;2.22;100.00;96669.84;15276745;19;20033;-50
2023/02/24 21:45:22;;;;;;;4.47;4.07;;;;;;;2.25;100.00;96658.88;15279618;19;20027;-51
2023/02/24 21:50:58;;;;;;;4.82;4.32;;;;;;;2.33;100.00;96668.75;15277342;19;20026;-48
2023/02/24 21:56:25;;;;;;;6.07;4.35;;;;;;;2.38;100.00;96663.84;15279504;19;20025;-52
2023/02/24 22:01:56;;;;;;;5.10;4.35;;;;;;;2.35;100.00;96664.13;15273206;19;20010;-51
2023/02/24 22:07:24;;;;;;;5.43;4.93;;;;;;;2.39;100.00;96673.47;15273296;19;20029;-50
2023/02/24 22:12:49;;;;;;;6.90;4.50;;;;;;;2.39;100.00;96670.81;15279849;19;20258;-50
2023/02/24 22:18:16;;;;;;;4.78;4.00;;;;;;;2.47;100.00;96641.63;15279322;19;20035;-51
2023/02/24 22:23:43;;;;;;;4.25;3.90;;;;;;;2.54;100.00;96646.31;15280337;19;20007;-52
2023/02/24 22:29:08;;;;;;;3.88;3.55;;;;;;;2.56;100.00;96647.00;15258643;19;20021;-49
2023/02/24 22:34:33;;;;;;;3.22;3.03;;;;;;;2.58;100.00;96663.63;15278315;19;20612;-51
2023/02/24 22:40:01;;;;;;;3.80;3.50;;;;;;;2.56;100.00;96654.97;15269933;19;20039;-51
2023/02/24 22:45:25;;;;;;;3.83;3.47;;;;;;;2.54;100.00;96651.63;15277995;19;20583;-48
2023/02/24 22:50:50;;;;;;;3.90;3.60;;;;;;;2.54;100.00;96664.94;15274942;19;20684;-51
2023/02/24 22:56:20;;;;;;;4.20;3.30;;;;;;;2.50;100.00;96672.38;15275760;19;20365;-49
2023/02/24 23:01:52;;;;;;;4.97;3.50;;;;;;;2.51;100.00;96657.28;15270638;19;20020;-51
2023/02/24 23:07:17;;;;;;;4.88;3.15;;;;;;;2.51;100.00;96673.22;15275720;19;20015;-49
2023/02/24 23:12:44;;;;;;;4.43;2.60;;;;;;;2.52;100.00;96656.31;15267183;19;20010;-49
2023/02/24 23:18:09;;;;;;;5.68;2.78;;;;;;;2.52;100.00;96658.97;15276363;19;20605;-52
2023/02/24 23:23:34;;;;;;;7.28;2.70;;;;;;;2.51;100.00;96659.94;15275591;19;20010;-50
2023/02/24 23:29:02;;;;;;;4.75;2.63;;;;;;;2.50;100.00;96655.63;15273338;19;20018;-49
2023/02/24 23:34:26;;;;;;;6.15;3.00;;;;;;;2.50;100.00;96652.97;15271970;19;20740;-48
2023/02/24 23:39:51;;;;;;;4.15;2.67;;;;;;;2.50;100.00;96648.47;15270623;19;20464;-50
2023/02/24 23:45:19;;;;;;;4.50;2.78;;;;;;;2.51;100.00;96662.59;15267528;19;20062;-51
2023/02/24 23:50:45;;;;;;;4.30;2.70;;;;;;;2.47;100.00;96662.06;15271829;19;20021;-51
2023/02/24 23:56:14;;;;;;;5.18;2.75;;;;;;;2.42;100.00;96674.97;15273172;19;20025;-51
